Moana, Spain
Current Conditions -  °F | °C
As of 6:00 AM on Wednesday 26 Nov 2014 (Local Time) from LEVX Reporting Station
Broken Clouds Broken Clouds  
Wind Chill: 48°   Ceiling: 4000
Heat Index: 48°   Visibility: 6mi
Dew Point: 48°   Wind: 2mph
Humidity: 100%   Direction: NA
Pressure: 29.94"   Gusts: NA
Location:  42.28°N, 8.75°W
Report Text: LEVX 260500Z VRB02KT 9999 BKN040 09/09 Q1014 NOSIG
Loading
Personal Weather Stations






























Interactive Weather Map New forecast layout! Learn more

10-Day Weather Forecast

Advertisements
Track Severe Weather on mobile